sensor_id;sensor_type;location;lat;lon;timestamp;pressure;altitude;pressure_sealevel;temperature;humidity
9110;BME280;4590;51.462;6.692;2023-03-04T00:00:52;102347.63;;;7.33;55.26
9110;BME280;4590;51.462;6.692;2023-03-04T00:03:17;102346.78;;;7.32;55.65
9110;BME280;4590;51.462;6.692;2023-03-04T00:05:43;102341.06;;;7.34;56.11
9110;BME280;4590;51.462;6.692;2023-03-04T00:08:08;102347.63;;;7.33;55.51
9110;BME280;4590;51.462;6.692;2023-03-04T00:10:33;102342.97;;;7.33;55.39
9110;BME280;4590;51.462;6.692;2023-03-04T00:12:58;102339.16;;;7.34;55.75
9110;BME280;4590;51.462;6.692;2023-03-04T00:15:24;102345.47;;;7.35;55.71
9110;BME280;4590;51.462;6.692;2023-03-04T00:17:49;102346.56;;;7.34;55.96
9110;BME280;4590;51.462;6.692;2023-03-04T00:20:14;102347.38;;;7.34;55.86
9110;BME280;4590;51.462;6.692;2023-03-04T00:22:40;102344.66;;;7.34;55.96
9110;BME280;4590;51.462;6.692;2023-03-04T00:25:05;102331.19;;;7.33;56.00
9110;BME280;4590;51.462;6.692;2023-03-04T00:27:31;102337.50;;;7.33;56.02
9110;BME280;4590;51.462;6.692;2023-03-04T00:29:56;102337.75;;;7.32;56.04
9110;BME280;4590;51.462;6.692;2023-03-04T00:32:21;102338.34;;;7.34;55.76
9110;BME280;4590;51.462;6.692;2023-03-04T00:34:47;102341.91;;;7.34;56.19
9110;BME280;4590;51.462;6.692;2023-03-04T00:37:12;102340.00;;;7.35;56.10
9110;BME280;4590;51.462;6.692;2023-03-04T00:39:37;102343.56;;;7.35;56.14
9110;BME280;4590;51.462;6.692;2023-03-04T00:42:03;102338.09;;;7.35;56.01
9110;BME280;4590;51.462;6.692;2023-03-04T00:44:28;102337.50;;;7.33;55.46
9110;BME280;4590;51.462;6.692;2023-03-04T00:46:53;102331.19;;;7.33;55.61
9110;BME280;4590;51.462;6.692;2023-03-04T00:49:19;102334.91;;;7.27;56.25
9110;BME280;4590;51.462;6.692;2023-03-04T00:51:44;102330.03;;;7.29;55.77
9110;BME280;4590;51.462;6.692;2023-03-04T00:54:09;102322.03;;;7.27;55.45
9110;BME280;4590;51.462;6.692;2023-03-04T00:56:34;102320.97;;;7.28;55.65
9110;BME280;4590;51.462;6.692;2023-03-04T00:59:00;102319.31;;;7.27;55.73
9110;BME280;4590;51.462;6.692;2023-03-04T01:01:25;102320.38;;;7.26;55.65
9110;BME280;4590;51.462;6.692;2023-03-04T01:03:50;102320.38;;;7.26;55.93
9110;BME280;4590;51.462;6.692;2023-03-04T01:06:16;102326.94;;;7.25;55.54
9110;BME280;4590;51.462;6.692;2023-03-04T01:08:42;102324.78;;;7.27;55.77
9110;BME280;4590;51.462;6.692;2023-03-04T01:11:07;102324.53;;;7.29;55.73
9110;BME280;4590;51.462;6.692;2023-03-04T01:13:33;102317.16;;;7.29;55.91
9110;BME280;4590;51.462;6.692;2023-03-04T01:15:58;102319.91;;;7.29;55.40
9110;BME280;4590;51.462;6.692;2023-03-04T01:18:24;102313.59;;;7.29;55.63
9110;BME280;4590;51.462;6.692;2023-03-04T01:20:49;102314.44;;;7.29;55.55
9110;BME280;4590;51.462;6.692;2023-03-04T01:23:15;102317.75;;;7.31;56.52
9110;BME280;4590;51.462;6.692;2023-03-04T01:25:40;102311.19;;;7.32;55.76
9110;BME280;4590;51.462;6.692;2023-03-04T01:28:05;102313.09;;;7.32;56.29
9110;BME280;4590;51.462;6.692;2023-03-04T01:30:30;102312.03;;;7.33;55.80
9110;BME280;4590;51.462;6.692;2023-03-04T01:32:56;102310.59;;;7.30;56.18
9110;BME280;4590;51.462;6.692;2023-03-04T01:35:21;102306.22;;;7.29;56.31
9110;BME280;4590;51.462;6.692;2023-03-04T01:37:46;102316.56;;;7.27;56.12
9110;BME280;4590;51.462;6.692;2023-03-04T01:40:12;102303.97;;;7.26;55.99
9110;BME280;4590;51.462;6.692;2023-03-04T01:42:38;102303.97;;;7.26;55.84
9110;BME280;4590;51.462;6.692;2023-03-04T01:45:04;102304.78;;;7.27;55.77
9110;BME280;4590;51.462;6.692;2023-03-04T01:47:31;102299.56;;;7.25;56.23
9110;BME280;4590;51.462;6.692;2023-03-04T01:50:00;102300.16;;;7.27;56.04
9110;BME280;4590;51.462;6.692;2023-03-04T01:52:27;102297.16;;;7.29;55.85
9110;BME280;4590;51.462;6.692;2023-03-04T01:54:52;102293.59;;;7.28;56.69
9110;BME280;4590;51.462;6.692;2023-03-04T01:57:20;102306.22;;;7.29;56.10
9110;BME280;4590;51.462;6.692;2023-03-04T01:59:46;102297.16;;;7.29;56.46
9110;BME280;4590;51.462;6.692;2023-03-04T02:02:12;102299.06;;;7.28;56.40
9110;BME280;4590;51.462;6.692;2023-03-04T02:04:39;102297.66;;;7.26;55.98
9110;BME280;4590;51.462;6.692;2023-03-04T02:07:06;102293.59;;;7.28;55.98
9110;BME280;4590;51.462;6.692;2023-03-04T02:09:33;102289.19;;;7.27;56.30
9110;BME280;4590;51.462;6.692;2023-03-04T02:11:59;102293.00;;;7.26;56.25
9110;BME280;4590;51.462;6.692;2023-03-04T02:14:25;102285.88;;;7.25;56.44
9110;BME280;4590;51.462;6.692;2023-03-04T02:16:50;102286.94;;;7.24;56.60
9110;BME280;4590;51.462;6.692;2023-03-04T02:22:11;102285.31;;;7.23;56.47
9110;BME280;4590;51.462;6.692;2023-03-04T02:24:41;102282.00;;;7.21;56.85
9110;BME280;4590;51.462;6.692;2023-03-04T02:27:07;102280.09;;;7.22;56.33
9110;BME280;4590;51.462;6.692;2023-03-04T02:29:32;102281.41;;;7.19;56.08
9110;BME280;4590;51.462;6.692;2023-03-04T02:31:58;102283.78;;;7.16;56.58
9110;BME280;4590;51.462;6.692;2023-03-04T02:34:28;102284.03;;;7.14;56.19
9110;BME280;4590;51.462;6.692;2023-03-04T02:36:55;102271.34;;;7.08;56.25
9110;BME280;4590;51.462;6.692;2023-03-04T02:41:47;102280.63;;;7.07;56.08
9110;BME280;4590;51.462;6.692;2023-03-04T02:44:15;102272.81;;;6.99;56.17
9110;BME280;4590;51.462;6.692;2023-03-04T02:46:40;102272.22;;;6.97;57.51
9110;BME280;4590;51.462;6.692;2023-03-04T02:49:06;102261.72;;;7.06;56.73
9110;BME280;4590;51.462;6.692;2023-03-04T02:51:31;102261.47;;;7.07;56.93
9110;BME280;4590;51.462;6.692;2023-03-04T02:53:56;102265.88;;;7.08;56.44
9110;BME280;4590;51.462;6.692;2023-03-04T02:56:21;102260.41;;;7.08;56.83
9110;BME280;4590;51.462;6.692;2023-03-04T02:58:47;102267.50;;;7.09;56.89
9110;BME280;4590;51.462;6.692;2023-03-04T03:01:12;102249.44;;;7.08;56.60
9110;BME280;4590;51.462;6.692;2023-03-04T03:03:37;102254.94;;;7.08;57.01
9110;BME280;4590;51.462;6.692;2023-03-04T03:06:03;102248.09;;;7.11;56.61
9110;BME280;4590;51.462;6.692;2023-03-04T03:08:28;102248.94;;;7.11;56.23
9110;BME280;4590;51.462;6.692;2023-03-04T03:10:53;102250.59;;;7.12;56.58
9110;BME280;4590;51.462;6.692;2023-03-04T03:13:19;102248.44;;;7.14;56.43
9110;BME280;4590;51.462;6.692;2023-03-04T03:15:44;102243.56;;;7.16;56.14
9110;BME280;4590;51.462;6.692;2023-03-04T03:18:10;102245.94;;;7.13;56.75
9110;BME280;4590;51.462;6.692;2023-03-04T03:20:36;102248.19;;;7.16;56.87
9110;BME280;4590;51.462;6.692;2023-03-04T03:23:01;102243.56;;;7.16;56.51
9110;BME280;4590;51.462;6.692;2023-03-04T03:25:27;102241.06;;;7.15;56.72
9110;BME280;4590;51.462;6.692;2023-03-04T03:27:52;102235.34;;;7.16;56.94
9110;BME280;4590;51.462;6.692;2023-03-04T03:30:17;102245.47;;;7.16;56.32
9110;BME280;4590;51.462;6.692;2023-03-04T03:32:44;102234.28;;;7.17;56.54
9110;BME280;4590;51.462;6.692;2023-03-04T03:35:09;102236.75;;;7.19;56.57
9110;BME280;4590;51.462;6.692;2023-03-04T03:37:35;102227.47;;;7.20;56.77
9110;BME280;4590;51.462;6.692;2023-03-04T03:40:00;102228.06;;;7.22;56.67
9110;BME280;4590;51.462;6.692;2023-03-04T03:42:25;102227.00;;;7.23;56.68
9110;BME280;4590;51.462;6.692;2023-03-04T03:44:51;102243.13;;;7.24;56.74
9110;BME280;4590;51.462;6.692;2023-03-04T03:47:16;102223.97;;;7.24;57.11
9110;BME280;4590;51.462;6.692;2023-03-04T03:49:41;102231.88;;;7.21;56.59
9110;BME280;4590;51.462;6.692;2023-03-04T03:52:06;102231.06;;;7.20;56.75
9110;BME280;4590;51.462;6.692;2023-03-04T03:54:33;102234.75;;;7.14;56.58
9110;BME280;4590;51.462;6.692;2023-03-04T03:56:58;102238.34;;;7.15;56.84
9110;BME280;4590;51.462;6.692;2023-03-04T03:59:23;102226.31;;;7.16;56.68
9110;BME280;4590;51.462;6.692;2023-03-04T04:01:48;102229.03;;;7.16;57.10
9110;BME280;4590;51.462;6.692;2023-03-04T04:04:14;102229.88;;;7.16;57.40
9110;BME280;4590;51.462;6.692;2023-03-04T04:06:39;102224.97;;;7.18;57.26
9110;BME280;4590;51.462;6.692;2023-03-04T04:09:04;102230.22;;;7.20;57.17
9110;BME280;4590;51.462;6.692;2023-03-04T04:11:30;102236.75;;;7.19;57.21
9110;BME280;4590;51.462;6.692;2023-03-04T04:13:55;102221.06;;;7.14;57.33
9110;BME280;4590;51.462;6.692;2023-03-04T04:16:20;102225.72;;;7.14;57.46
9110;BME280;4590;51.462;6.692;2023-03-04T04:18:45;102224.88;;;7.13;57.25
9110;BME280;4590;51.462;6.692;2023-03-04T04:21:11;102222.41;;;7.12;56.63
9110;BME280;4590;51.462;6.692;2023-03-04T04:23:36;102226.22;;;7.11;57.17
9110;BME280;4590;51.462;6.692;2023-03-04T04:26:01;102225.38;;;7.10;57.42
9110;BME280;4590;51.462;6.692;2023-03-04T04:28:27;102227.03;;;7.11;57.11
9110;BME280;4590;51.462;6.692;2023-03-04T04:30:52;102235.00;;;7.13;57.29
9110;BME280;4590;51.462;6.692;2023-03-04T04:33:17;102226.56;;;7.14;57.33
9110;BME280;4590;51.462;6.692;2023-03-04T04:35:43;102221.56;;;7.11;57.25
9110;BME280;4590;51.462;6.692;2023-03-04T04:38:08;102227.03;;;7.11;57.46
9110;BME280;4590;51.462;6.692;2023-03-04T04:40:34;102233.09;;;7.13;57.30
9110;BME280;4590;51.462;6.692;2023-03-04T04:43:00;102219.91;;;7.10;57.58
9110;BME280;4590;51.462;6.692;2023-03-04T04:45:25;102224.81;;;7.08;57.15
9110;BME280;4590;51.462;6.692;2023-03-04T04:47:54;102226.97;;;7.06;57.54
9110;BME280;4590;51.462;6.692;2023-03-04T04:50:24;102228.63;;;7.07;57.40
9110;BME280;4590;51.462;6.692;2023-03-04T04:52:49;102236.84;;;7.07;57.82
9110;BME280;4590;51.462;6.692;2023-03-04T04:55:15;102236.25;;;7.05;57.53
9110;BME280;4590;51.462;6.692;2023-03-04T04:57:40;102232.94;;;7.03;57.61
9110;BME280;4590;51.462;6.692;2023-03-04T05:00:06;102239.31;;;7.09;57.72
9110;BME280;4590;51.462;6.692;2023-03-04T05:02:32;102231.09;;;7.09;57.54
9110;BME280;4590;51.462;6.692;2023-03-04T05:05:04;102230.03;;;7.10;57.48
9110;BME280;4590;51.462;6.692;2023-03-04T05:07:30;102244.53;;;7.10;57.46
9110;BME280;4590;51.462;6.692;2023-03-04T05:09:55;102239.66;;;7.12;57.09
9110;BME280;4590;51.462;6.692;2023-03-04T05:12:20;102239.06;;;7.10;57.16
9110;BME280;4590;51.462;6.692;2023-03-04T05:14:46;102239.06;;;7.10;57.43
9110;BME280;4590;51.462;6.692;2023-03-04T05:17:11;102245.59;;;7.09;57.36
9110;BME280;4590;51.462;6.692;2023-03-04T05:19:36;102245.06;;;7.07;57.37
9110;BME280;4590;51.462;6.692;2023-03-04T05:22:01;102246.44;;;7.10;57.67
9110;BME280;4590;51.462;6.692;2023-03-04T05:24:27;102238.00;;;7.11;57.64
9110;BME280;4590;51.462;6.692;2023-03-04T05:26:52;102241.31;;;7.13;57.09
9110;BME280;4590;51.462;6.692;2023-03-04T05:29:17;102240.25;;;7.14;57.47
9110;BME280;4590;51.462;6.692;2023-03-04T05:31:43;102233.94;;;7.14;57.75
9110;BME280;4590;51.462;6.692;2023-03-04T05:34:08;102230.38;;;7.13;57.58
9110;BME280;4590;51.462;6.692;2023-03-04T05:36:33;102236.09;;;7.12;57.68
9110;BME280;4590;51.462;6.692;2023-03-04T05:38:58;102230.53;;;7.07;57.55
9110;BME280;4590;51.462;6.692;2023-03-04T05:41:24;102243.16;;;7.08;57.05
9110;BME280;4590;51.462;6.692;2023-03-04T05:43:49;102236.56;;;7.09;57.15
9110;BME280;4590;51.462;6.692;2023-03-04T05:46:16;102233.84;;;7.09;57.52
9110;BME280;4590;51.462;6.692;2023-03-04T05:48:42;102238.22;;;7.10;57.03
9110;BME280;4590;51.462;6.692;2023-03-04T05:51:09;102234.66;;;7.09;57.61
9110;BME280;4590;51.462;6.692;2023-03-04T05:53:34;102231.94;;;7.09;57.18
9110;BME280;4590;51.462;6.692;2023-03-04T05:56:06;102236.00;;;7.07;57.16
9110;BME280;4590;51.462;6.692;2023-03-04T05:58:31;102242.88;;;7.09;57.75
9110;BME280;4590;51.462;6.692;2023-03-04T06:00:59;102230.28;;;7.08;57.40
9110;BME280;4590;51.462;6.692;2023-03-04T06:03:24;102240.97;;;7.10;57.29
9110;BME280;4590;51.462;6.692;2023-03-04T06:05:49;102235.50;;;7.10;57.31
9110;BME280;4590;51.462;6.692;2023-03-04T06:08:15;102240.47;;;7.13;57.69
9110;BME280;4590;51.462;6.692;2023-03-04T06:10:40;102239.41;;;7.14;57.02
9110;BME280;4590;51.462;6.692;2023-03-04T06:13:07;102245.94;;;7.13;57.57
9110;BME280;4590;51.462;6.692;2023-03-04T06:15:33;102245.72;;;7.14;57.37
9110;BME280;4590;51.462;6.692;2023-03-04T06:17:58;102245.13;;;7.12;57.54
9110;BME280;4590;51.462;6.692;2023-03-04T06:20:23;102251.19;;;7.14;57.18
9110;BME280;4590;51.462;6.692;2023-03-04T06:22:48;102245.47;;;7.16;57.59
9110;BME280;4590;51.462;6.692;2023-03-04T06:25:14;102249.03;;;7.16;57.22
9110;BME280;4590;51.462;6.692;2023-03-04T06:27:39;102251.53;;;7.18;57.61
9110;BME280;4590;51.462;6.692;2023-03-04T06:30:05;102258.91;;;7.17;57.32
9110;BME280;4590;51.462;6.692;2023-03-04T06:32:31;102258.91;;;7.17;57.19
9110;BME280;4590;51.462;6.692;2023-03-04T06:34:56;102258.09;;;7.17;57.92
9110;BME280;4590;51.462;6.692;2023-03-04T06:37:21;102264.63;;;7.16;57.88
9110;BME280;4590;51.462;6.692;2023-03-04T06:39:47;102261.66;;;7.17;58.06
9110;BME280;4590;51.462;6.692;2023-03-04T06:42:12;102264.38;;;7.17;57.91
9110;BME280;4590;51.462;6.692;2023-03-04T06:44:38;102265.22;;;7.18;57.76
9110;BME280;4590;51.462;6.692;2023-03-04T06:47:03;102274.25;;;7.18;57.81
9110;BME280;4590;51.462;6.692;2023-03-04T06:49:29;102272.94;;;7.21;57.62
9110;BME280;4590;51.462;6.692;2023-03-04T06:51:54;102272.69;;;7.22;57.81
9110;BME280;4590;51.462;6.692;2023-03-04T06:54:19;102272.94;;;7.21;58.07
9110;BME280;4590;51.462;6.692;2023-03-04T06:56:45;102275.91;;;7.19;58.30
9110;BME280;4590;51.462;6.692;2023-03-04T06:59:10;102276.16;;;7.18;58.48
9110;BME280;4590;51.462;6.692;2023-03-04T07:01:35;102282.03;;;7.10;58.58
9110;BME280;4590;51.462;6.692;2023-03-04T07:04:02;102282.28;;;7.08;59.15
9110;BME280;4590;51.462;6.692;2023-03-04T07:06:28;102284.19;;;7.08;58.91
9110;BME280;4590;51.462;6.692;2023-03-04T07:08:53;102285.84;;;7.09;59.53
9110;BME280;4590;51.462;6.692;2023-03-04T07:11:19;102283.94;;;7.09;59.04
9110;BME280;4590;51.462;6.692;2023-03-04T07:13:46;102291.06;;;7.10;59.09
9110;BME280;4590;51.462;6.692;2023-03-04T07:16:14;102288.09;;;7.12;59.82
9110;BME280;4590;51.462;6.692;2023-03-04T07:18:39;102287.84;;;7.13;59.39
9110;BME280;4590;51.462;6.692;2023-03-04T07:21:06;102282.13;;;7.15;60.22
9110;BME280;4590;51.462;6.692;2023-03-04T07:23:32;102279.97;;;7.17;60.03
9110;BME280;4590;51.462;6.692;2023-03-04T07:25:57;102290.69;;;7.18;59.90
9110;BME280;4590;51.462;6.692;2023-03-04T07:28:23;102304.38;;;7.18;59.58
9110;BME280;4590;51.462;6.692;2023-03-04T07:30:48;102297.00;;;7.19;60.06
9110;BME280;4590;51.462;6.692;2023-03-04T07:33:13;102306.88;;;7.20;60.38
9110;BME280;4590;51.462;6.692;2023-03-04T07:35:39;102300.56;;;7.19;60.41
9110;BME280;4590;51.462;6.692;2023-03-04T07:38:05;102298.91;;;7.18;60.21
9110;BME280;4590;51.462;6.692;2023-03-04T07:40:31;102287.94;;;7.18;60.70
9110;BME280;4590;51.462;6.692;2023-03-04T07:42:56;102292.34;;;7.19;61.20
9110;BME280;4590;51.462;6.692;2023-03-04T07:45:22;102288.53;;;7.20;61.15
9110;BME280;4590;51.462;6.692;2023-03-04T07:47:48;102286.16;;;7.24;61.16
9110;BME280;4590;51.462;6.692;2023-03-04T07:50:14;102296.34;;;7.28;61.31
9110;BME280;4590;51.462;6.692;2023-03-04T07:52:44;102292.88;;;7.33;61.04
9110;BME280;4590;51.462;6.692;2023-03-04T07:55:11;102292.72;;;7.39;61.46
9110;BME280;4590;51.462;6.692;2023-03-04T07:57:40;102294.28;;;7.35;62.81
9110;BME280;4590;51.462;6.692;2023-03-04T08:00:06;102295.53;;;7.45;61.87
9110;BME280;4590;51.462;6.692;2023-03-04T08:02:32;102304.91;;;7.49;61.49
9110;BME280;4590;51.462;6.692;2023-03-04T08:04:57;102306.56;;;7.50;61.77
9110;BME280;4590;51.462;6.692;2023-03-04T08:07:22;102297.53;;;7.49;61.97
9110;BME280;4590;51.462;6.692;2023-03-04T08:09:48;102306.09;;;7.53;62.41
9110;BME280;4590;51.462;6.692;2023-03-04T08:12:13;102300.44;;;7.59;62.80
9110;BME280;4590;51.462;6.692;2023-03-04T08:14:38;102298.44;;;7.71;62.53
9110;BME280;4590;51.462;6.692;2023-03-04T08:17:04;102301.59;;;7.80;62.87
9110;BME280;4590;51.462;6.692;2023-03-04T08:19:29;102295.44;;;7.90;62.28
9110;BME280;4590;51.462;6.692;2023-03-04T08:21:54;102301.84;;;7.95;62.08
9110;BME280;4590;51.462;6.692;2023-03-04T08:24:20;102303.84;;;8.00;62.26
9110;BME280;4590;51.462;6.692;2023-03-04T08:26:47;102297.34;;;8.06;62.24
9110;BME280;4590;51.462;6.692;2023-03-04T08:29:21;102297.66;;;8.09;61.85
9110;BME280;4590;51.462;6.692;2023-03-04T08:31:51;102296.91;;;8.14;61.62
9110;BME280;4590;51.462;6.692;2023-03-04T08:34:18;102302.19;;;8.21;61.68
9110;BME280;4590;51.462;6.692;2023-03-04T08:36:44;102302.28;;;8.26;61.38
9110;BME280;4590;51.462;6.692;2023-03-04T08:39:14;102296.53;;;8.27;61.06
9110;BME280;4590;51.462;6.692;2023-03-04T08:41:39;102302.16;;;8.32;61.47
9110;BME280;4590;51.462;6.692;2023-03-04T08:44:05;102301.06;;;8.33;61.38
9110;BME280;4590;51.462;6.692;2023-03-04T08:46:32;102296.47;;;8.39;60.96
9110;BME280;4590;51.462;6.692;2023-03-04T08:48:58;102301.69;;;8.40;61.37
9110;BME280;4590;51.462;6.692;2023-03-04T08:51:23;102297.38;;;8.44;61.49
9110;BME280;4590;51.462;6.692;2023-03-04T08:53:49;102291.16;;;8.54;61.64
9110;BME280;4590;51.462;6.692;2023-03-04T08:56:15;102290.16;;;8.60;61.14
9110;BME280;4590;51.462;6.692;2023-03-04T08:58:41;102289.94;;;8.67;61.05
9110;BME280;4590;51.462;6.692;2023-03-04T09:01:09;102292.44;;;8.68;61.13
9110;BME280;4590;51.462;6.692;2023-03-04T09:03:35;102294.94;;;8.70;61.17
9110;BME280;4590;51.462;6.692;2023-03-04T09:06:02;102300.25;;;8.76;61.04
9110;BME280;4590;51.462;6.692;2023-03-04T09:08:28;102295.38;;;8.84;60.68
9110;BME280;4590;51.462;6.692;2023-03-04T09:10:54;102294.84;;;8.87;60.68
9110;BME280;4590;51.462;6.692;2023-03-04T09:13:20;102296.25;;;8.89;60.30
9110;BME280;4590;51.462;6.692;2023-03-04T09:15:48;102296.53;;;8.88;60.58
9110;BME280;4590;51.462;6.692;2023-03-04T09:18:15;102297.03;;;8.85;60.42
9110;BME280;4590;51.462;6.692;2023-03-04T09:20:41;102291.03;;;8.88;60.50
9110;BME280;4590;51.462;6.692;2023-03-04T09:23:06;102301.00;;;8.94;60.56
9110;BME280;4590;51.462;6.692;2023-03-04T09:25:33;102298.03;;;9.00;60.52
9110;BME280;4590;51.462;6.692;2023-03-04T09:27:58;102294.50;;;9.05;60.71
9110;BME280;4590;51.462;6.692;2023-03-04T09:30:24;102294.59;;;9.10;60.53
9110;BME280;4590;51.462;6.692;2023-03-04T09:32:49;102289.38;;;9.13;60.55
9110;BME280;4590;51.462;6.692;2023-03-04T09:35:14;102286.25;;;9.27;60.63
9110;BME280;4590;51.462;6.692;2023-03-04T09:37:40;102294.06;;;9.40;60.18
9110;BME280;4590;51.462;6.692;2023-03-04T09:40:06;102287.28;;;9.53;60.23
9110;BME280;4590;51.462;6.692;2023-03-04T09:42:54;102288.63;;;9.50;59.43
9110;BME280;4590;51.462;6.692;2023-03-04T09:45:26;102285.44;;;9.63;59.65
9110;BME280;4590;51.462;6.692;2023-03-04T09:47:54;102278.13;;;9.74;59.38
9110;BME280;4590;51.462;6.692;2023-03-04T09:50:20;102282.56;;;9.80;59.09
9110;BME280;4590;51.462;6.692;2023-03-04T09:55:24;102282.34;;;9.87;58.78
9110;BME280;4590;51.462;6.692;2023-03-04T10:00:24;102272.69;;;9.84;58.35
9110;BME280;4590;51.462;6.692;2023-03-04T10:03:05;102283.69;;;9.84;58.35
9110;BME280;4590;51.462;6.692;2023-03-04T10:06:06;102264.75;;;9.88;57.92
9110;BME280;4590;51.462;6.692;2023-03-04T10:08:40;102269.44;;;9.92;57.85
9110;BME280;4590;51.462;6.692;2023-03-04T10:11:19;102266.16;;;9.95;57.76
9110;BME280;4590;51.462;6.692;2023-03-04T10:16:20;102264.84;;;10.03;57.54
9110;BME280;4590;51.462;6.692;2023-03-04T10:19:00;102260.13;;;9.98;57.99
9110;BME280;4590;51.462;6.692;2023-03-04T10:21:35;102261.53;;;10.01;58.09
9110;BME280;4590;51.462;6.692;2023-03-04T10:24:13;102267.72;;;9.81;58.16
9110;BME280;4590;51.462;6.692;2023-03-04T10:26:43;102259.00;;;9.94;58.42
9110;BME280;4590;51.462;6.692;2023-03-04T10:29:18;102265.06;;;9.96;58.39
9110;BME280;4590;51.462;6.692;2023-03-04T10:31:45;102253.59;;;10.04;58.07
9110;BME280;4590;51.462;6.692;2023-03-04T10:34:13;102247.28;;;10.09;58.07
9110;BME280;4590;51.462;6.692;2023-03-04T10:42:22;102258.03;;;10.15;58.06
9110;BME280;4590;51.462;6.692;2023-03-04T10:47:17;102255.94;;;10.23;57.67
9110;BME280;4590;51.462;6.692;2023-03-04T10:49:57;102259.13;;;10.14;57.48
9110;BME280;4590;51.462;6.692;2023-03-04T10:52:30;102258.38;;;10.19;57.47
9110;BME280;4590;51.462;6.692;2023-03-04T10:55:22;102248.78;;;10.22;57.52
9110;BME280;4590;51.462;6.692;2023-03-04T10:57:49;102255.09;;;10.27;57.80
9110;BME280;4590;51.462;6.692;2023-03-04T11:02:41;102246.63;;;10.34;56.85
9110;BME280;4590;51.462;6.692;2023-03-04T11:05:15;102243.88;;;10.34;57.30
9110;BME280;4590;51.462;6.692;2023-03-04T11:10:18;102237.81;;;10.32;56.96
9110;BME280;4590;51.462;6.692;2023-03-04T11:16:00;102225.13;;;10.31;56.03
9110;BME280;4590;51.462;6.692;2023-03-04T11:18:51;102227.94;;;10.36;56.19
9110;BME280;4590;51.462;6.692;2023-03-04T11:21:26;102229.84;;;10.40;56.44
9110;BME280;4590;51.462;6.692;2023-03-04T11:23:59;102230.13;;;10.39;56.32
9110;BME280;4590;51.462;6.692;2023-03-04T11:26:35;102226.81;;;10.42;56.09
9110;BME280;4590;51.462;6.692;2023-03-04T11:29:22;102221.31;;;10.37;55.42
9110;BME280;4590;51.462;6.692;2023-03-04T11:34:37;102217.13;;;10.19;56.38
9110;BME280;4590;51.462;6.692;2023-03-04T11:37:11;102214.66;;;10.23;56.37
9110;BME280;4590;51.462;6.692;2023-03-04T11:42:39;102216.75;;;10.10;56.70
9110;BME280;4590;51.462;6.692;2023-03-04T11:45:14;102212.94;;;10.16;57.45
9110;BME280;4590;51.462;6.692;2023-03-04T11:47:57;102208.88;;;10.19;57.32
9110;BME280;4590;51.462;6.692;2023-03-04T11:50:37;102202.53;;;10.18;57.09
9110;BME280;4590;51.462;6.692;2023-03-04T11:53:27;102202.78;;;10.17;57.36
9110;BME280;4590;51.462;6.692;2023-03-04T12:03:59;102187.69;;;10.19;57.36
9110;BME280;4590;51.462;6.692;2023-03-04T12:15:20;102167.91;;;10.23;57.87
9110;BME280;4590;51.462;6.692;2023-03-04T12:18:11;102166.50;;;10.25;57.84
9110;BME280;4590;51.462;6.692;2023-03-04T12:20:59;102169.00;;;10.27;58.08
9110;BME280;4590;51.462;6.692;2023-03-04T12:26:48;102160.44;;;10.23;57.78
9110;BME280;4590;51.462;6.692;2023-03-04T12:29:39;102156.06;;;10.27;58.01
9110;BME280;4590;51.462;6.692;2023-03-04T12:34:52;102159.91;;;10.26;57.94
9110;BME280;4590;51.462;6.692;2023-03-04T12:40:25;102148.28;;;10.14;59.16
9110;BME280;4590;51.462;6.692;2023-03-04T12:46:10;102152.91;;;9.98;59.59
9110;BME280;4590;51.462;6.692;2023-03-04T12:52:18;102146.22;;;9.84;59.86
9110;BME280;4590;51.462;6.692;2023-03-04T12:54:52;102148.97;;;9.84;59.87
9110;BME280;4590;51.462;6.692;2023-03-04T12:57:24;102141.00;;;9.82;59.91
9110;BME280;4590;51.462;6.692;2023-03-04T13:00:13;102132.44;;;9.79;60.00
9110;BME280;4590;51.462;6.692;2023-03-04T13:02:49;102136.03;;;9.79;60.19
9110;BME280;4590;51.462;6.692;2023-03-04T13:05:28;102130.28;;;9.81;60.47
9110;BME280;4590;51.462;6.692;2023-03-04T13:10:43;102133.53;;;9.78;60.93
9110;BME280;4590;51.462;6.692;2023-03-04T13:13:35;102129.72;;;9.79;60.81
9110;BME280;4590;51.462;6.692;2023-03-04T13:18:42;102124.28;;;9.89;61.50
9110;BME280;4590;51.462;6.692;2023-03-04T13:21:27;102123.19;;;9.90;60.97
9110;BME280;4590;51.462;6.692;2023-03-04T13:23:53;102126.75;;;9.96;60.76
9110;BME280;4590;51.462;6.692;2023-03-04T13:29:08;102119.38;;;10.01;60.40
9110;BME280;4590;51.462;6.692;2023-03-04T13:32:04;102114.13;;;10.00;60.64
9110;BME280;4590;51.462;6.692;2023-03-04T13:34:59;102102.53;;;9.93;60.57
9110;BME280;4590;51.462;6.692;2023-03-04T13:37:35;102099.03;;;10.02;60.56
9110;BME280;4590;51.462;6.692;2023-03-04T13:40:23;102108.09;;;10.03;60.09
9110;BME280;4590;51.462;6.692;2023-03-04T13:54:06;102089.97;;;10.07;60.11
9110;BME280;4590;51.462;6.692;2023-03-04T13:56:34;102083.09;;;10.09;60.96
9110;BME280;4590;51.462;6.692;2023-03-04T13:59:12;102083.66;;;10.06;60.78
9110;BME280;4590;51.462;6.692;2023-03-04T14:04:29;102097.38;;;10.01;61.29
9110;BME280;4590;51.462;6.692;2023-03-04T14:06:56;102079.78;;;10.02;61.24
9110;BME280;4590;51.462;6.692;2023-03-04T14:09:30;102078.09;;;9.96;62.02
9110;BME280;4590;51.462;6.692;2023-03-04T14:12:04;102074.25;;;9.97;62.10
9110;BME280;4590;51.462;6.692;2023-03-04T14:14:45;102080.03;;;10.01;62.17
9110;BME280;4590;51.462;6.692;2023-03-04T14:17:17;102064.09;;;10.03;62.09
9110;BME280;4590;51.462;6.692;2023-03-04T14:19:45;102067.69;;;10.08;61.99
9110;BME280;4590;51.462;6.692;2023-03-04T14:22:32;102065.50;;;10.05;62.63
9110;BME280;4590;51.462;6.692;2023-03-04T14:25:45;102053.38;;;10.11;61.79
9110;BME280;4590;51.462;6.692;2023-03-04T14:28:04;102050.63;;;10.11;62.12
9110;BME280;4590;51.462;6.692;2023-03-04T14:30:31;102050.66;;;10.16;62.04
9110;BME280;4590;51.462;6.692;2023-03-04T14:32:57;102059.75;;;10.17;62.18
9110;BME280;4590;51.462;6.692;2023-03-04T14:35:28;102054.00;;;10.18;61.53
9110;BME280;4590;51.462;6.692;2023-03-04T14:38:01;102052.38;;;10.23;61.64
9110;BME280;4590;51.462;6.692;2023-03-04T14:40:40;102043.56;;;10.26;61.36
9110;BME280;4590;51.462;6.692;2023-03-04T14:43:18;102044.38;;;10.26;61.19
9110;BME280;4590;51.462;6.692;2023-03-04T14:45:46;102042.47;;;10.32;61.19
9110;BME280;4590;51.462;6.692;2023-03-04T14:48:40;102045.47;;;10.25;60.62
9110;BME280;4590;51.462;6.692;2023-03-04T14:51:36;102029.25;;;10.24;60.53
9110;BME280;4590;51.462;6.692;2023-03-04T14:54:03;102029.78;;;10.26;60.60
9110;BME280;4590;51.462;6.692;2023-03-04T14:56:29;102025.34;;;10.04;60.43